| time (UTC) | temp F | wind direction | speed knots | gust knots | rain 1hr in | rain 24hr in | rain mn in | humidity % | barometer mb |
| 20260508014514 | 46 | 45 | 0.0 | 2.6 | 0.00 | 0.03 | 0.00 | 90 | 1015.1 |
| 20260508013017 | 46 | 352 | 0.0 | 0.9 | 0.00 | 0.03 | 0.00 | 90 | 1015.3 |
| 20260508011522 | 46 | 352 | 0.0 | 0.9 | 0.00 | 0.03 | 0.00 | 90 | 1015.3 |
| 20260508010005 | 46 | 37 | 0.0 | 0.9 | 0.00 | 0.03 | 0.00 | 90 | 1015.2 |
| 20260508004513 | 46 | 36 | 0.0 | 0.9 | 0.00 | 0.03 | 0.00 | 90 | 1015.2 |
| 20260508003014 | 46 | 38 | 0.0 | 0.9 | 0.00 | 0.03 | 0.00 | 90 | 1015.1 |
| 20260508000025 | 46 | 44 | 0.0 | 0.9 | 0.00 | 0.04 | 0.00 | 89 | 1015.2 |
| 20260507231522 | 46 | 58 | 0.0 | 0.0 | 0.00 | 0.04 | 0.00 | 89 | 1015.4 |
| 20260507230020 | 47 | 58 | 0.0 | 0.9 | 0.00 | 0.04 | 0.00 | 89 | 1015.4 |
| 20260507224531 | 47 | 65 | 0.0 | 0.9 | 0.00 | 0.04 | 0.00 | 89 | 1015.3 |
| 20260507223013 | 47 | 96 | 0.0 | 0.9 | 0.00 | 0.04 | 0.00 | 90 | 1015.3 |
| 20260507221515 | 46 | 96 | 0.0 | 0.0 | 0.00 | 0.04 | 0.00 | 90 | 1015.3 |
| 20260507220021 | 46 | 96 | 0.0 | 0.9 | 0.00 | 0.04 | 0.00 | 90 | 1015.4 |
| 20260507214522 | 46 | 52 | 0.0 | 1.7 | 0.00 | 0.04 | 0.04 | 90 | 1015.3 |
| 20260507213024 | 46 | 43 | 0.0 | 1.7 | 0.00 | 0.04 | 0.04 | 91 | 1015.3 |
| 20260507211528 | 46 | 46 | 0.0 | 2.6 | 0.00 | 0.04 | 0.04 | 90 | 1015.2 |
| 20260507203028 | 47 | 8 | 0.0 | 4.3 | 0.00 | 0.04 | 0.04 | 90 | 1015.1 |
| 20260507201527 | 47 | 46 | 0.0 | 3.5 | 0.00 | 0.04 | 0.04 | 90 | 1014.8 |
| 20260507200028 | 47 | 43 | 0.0 | 1.7 | 0.00 | 0.04 | 0.04 | 90 | 1014.7 |
| 20260507191524 | 47 | 328 | 0.9 | 5.2 | 0.00 | 0.04 | 0.04 | 89 | 1014.4 |
| 20260507190024 | 48 | 302 | 1.7 | 5.2 | 0.00 | 0.04 | 0.04 | 88 | 1014.2 |
| 20260507184525 | 49 | 26 | 0.0 | 5.2 | 0.00 | 0.04 | 0.04 | 88 | 1014.0 |
| 20260507183026 | 50 | 49 | 1.7 | 3.5 | 0.00 | 0.04 | 0.04 | 86 | 1013.7 |
| 20260507181528 | 50 | 39 | 1.7 | 6.1 | 0.00 | 0.04 | 0.04 | 85 | 1013.5 |
| 20260507180027 | 51 | 39 | 0.0 | 2.6 | 0.00 | 0.04 | 0.04 | 83 | 1013.3 |
| 20260507174524 | 52 | 34 | 0.9 | 2.6 | 0.00 | 0.04 | 0.04 | 82 | 1013.2 |
| 20260507173031 | 52 | 48 | 0.0 | 0.9 | 0.00 | 0.04 | 0.04 | 81 | 1013.1 |
| 20260507171507 | 53 | 37 | 0.0 | 1.7 | 0.00 | 0.04 | 0.04 | 81 | 1012.9 |
| 20260507170005 | 53 | 31 | 0.9 | 4.3 | 0.00 | 0.04 | 0.04 | 81 | 1012.8 |
| 20260507164504 | 54 | 42 | 0.9 | 7.0 | 0.00 | 0.04 | 0.04 | 78 | 1012.8 |
| 20260507163007 | 56 | 42 | 2.6 | 7.0 | 0.00 | 0.04 | 0.04 | 74 | 1012.4 |
| 20260507161503 | 60 | 61 | 0.9 | 6.1 | 0.00 | 0.04 | 0.04 | 67 | 1012.0 |
| 20260507160001 | 62 | 40 | 0.9 | 7.8 | 0.00 | 0.04 | 0.04 | 53 | 1011.7 |
| 20260507154502 | 64 | 188 | 2.6 | 7.8 | 0.00 | 0.04 | 0.04 | 48 | 1011.6 |
| 20260507153001 | 64 | 188 | 0.9 | 4.3 | 0.00 | 0.04 | 0.04 | 48 | 1011.5 |
| 20260507151501 | 65 | 309 | 1.7 | 7.0 | 0.00 | 0.04 | 0.04 | 45 | 1011.5 |
| 20260507150012 | 66 | 288 | 2.6 | 7.0 | 0.00 | 0.04 | 0.04 | 43 | 1011.5 |
| 20260507144506 | 68 | 188 | 0.0 | 3.5 | 0.00 | 0.04 | 0.04 | 43 | 1011.4 |
| 20260507143006 | 65 | 188 | 2.6 | 6.1 | 0.00 | 0.04 | 0.04 | 46 | 1011.5 |
| 20260507141504 | 64 | 243 | 0.9 | 7.8 | 0.00 | 0.04 | 0.04 | 46 | 1011.6 |
| 20260507140005 | 66 | 335 | 2.6 | 7.0 | 0.00 | 0.04 | 0.04 | 46 | 1011.6 |
| 20260507133007 | 66 | 94 | 1.7 | 7.8 | 0.00 | 0.04 | 0.04 | 47 | 1011.5 |
| 20260507131504 | 64 | 188 | 2.6 | 6.1 | 0.00 | 0.04 | 0.04 | 50 | 1011.6 |
| 20260507130005 | 65 | 150 | 1.7 | 7.0 | 0.00 | 0.04 | 0.04 | 45 | 1011.6 |
| 20260507121506 | 66 | 42 | 2.6 | 7.0 | 0.00 | 0.04 | 0.04 | 49 | 1011.6 |
| 20260507120010 | 65 | 188 | 0.9 | 9.6 | 0.00 | 0.04 | 0.04 | 54 | 1011.6 |
| 20260507114506 | 64 | 188 | 1.7 | 8.7 | 0.00 | 0.04 | 0.04 | 53 | 1011.8 |
| 20260507110012 | 63 | 188 | 1.7 | 7.0 | 0.00 | 0.04 | 0.04 | 58 | 1011.7 |
| 20260507104507 | 63 | 188 | 2.6 | 8.7 | 0.00 | 0.04 | 0.04 | 57 | 1011.5 |
| 20260507103013 | 61 | 188 | 2.6 | 7.8 | 0.00 | 0.04 | 0.04 | 61 | 1011.4 |
| 20260507101516 | 60 | 188 | 3.5 | 8.7 | 0.00 | 0.04 | 0.04 | 61 | 1011.5 |
| 20260507100012 | 60 | 188 | 0.9 | 5.2 | 0.00 | 0.04 | 0.04 | 61 | 1011.4 |
| 20260507094513 | 61 | 96 | 1.7 | 7.0 | 0.00 | 0.04 | 0.04 | 61 | 1011.3 |
| 20260507093011 | 59 | 188 | 0.9 | 7.0 | 0.00 | 0.04 | 0.04 | 64 | 1011.0 |
| 20260507091512 | 57 | 188 | 0.9 | 11.3 | 0.00 | 0.04 | 0.04 | 67 | 1011.0 |
| 20260507090022 | 58 | 188 | 0.0 | 5.2 | 0.00 | 0.04 | 0.04 | 69 | 1010.7 |
| 20260507084516 | 56 | 188 | 0.0 | 5.2 | 0.00 | 0.04 | 0.04 | 72 | 1010.7 |
| 20260507083016 | 56 | 174 | 1.7 | 7.8 | 0.00 | 0.04 | 0.04 | 74 | 1010.6 |
| 20260507081514 | 56 | 174 | 0.9 | 5.2 | 0.00 | 0.04 | 0.04 | 74 | 1010.5 |
| 20260507080019 | 56 | 277 | 1.7 | 10.4 | 0.00 | 0.04 | 0.04 | 73 | 1010.7 |
| 20260507073019 | 54 | 188 | 0.0 | 1.7 | 0.00 | 0.04 | 0.04 | 83 | 1010.2 |
| 20260507071516 | 52 | 188 | 0.9 | 3.5 | 0.00 | 0.04 | 0.04 | 85 | 1010.2 |
| 20260507070027 | 52 | 188 | 0.0 | 5.2 | 0.00 | 0.04 | 0.04 | 85 | 1010.1 |
| 20260507064514 | 53 | 188 | 0.0 | 2.6 | 0.00 | 0.04 | 0.04 | 85 | 1009.9 |
| 20260507061519 | 53 | 188 | 1.7 | 7.0 | 0.00 | 0.04 | 0.04 | 83 | 1009.6 |
| 20260507060017 | 53 | 188 | 0.9 | 6.1 | 0.00 | 0.04 | 0.04 | 84 | 1009.5 |
| 20260507054524 | 53 | 188 | 1.7 | 6.1 | 0.00 | 0.04 | 0.04 | 84 | 1009.2 |
| 20260507053020 | 52 | 188 | 0.0 | 1.7 | 0.00 | 0.04 | 0.04 | 87 | 1009.2 |
| 20260507051502 | 51 | 188 | 1.7 | 6.1 | 0.00 | 0.04 | 0.04 | 87 | 1009.0 |
| 20260507050006 | 49 | 188 | 0.9 | 2.6 | 0.00 | 0.04 | 0.04 | 91 | 1008.8 |
| 20260507044509 | 49 | 188 | 0.0 | 1.7 | 0.00 | 0.04 | 0.04 | 91 | 1008.7 |
| 20260507043021 | 48 | 188 | 0.0 | 0.9 | 0.00 | 0.04 | 0.04 | 91 | 1008.4 |
| 20260507041503 | 48 | 188 | 0.9 | 2.6 | 0.00 | 0.04 | 0.04 | 91 | 1008.1 |
| 20260507040005 | 48 | 188 | 0.0 | 0.9 | 0.00 | 0.04 | 0.04 | 90 | 1008.0 |
| 20260507033012 | 49 | 188 | 0.0 | 1.7 | 0.00 | 0.04 | 0.04 | 90 | 1008.1 |
| 20260507030004 | 49 | 188 | 0.0 | 0.9 | 0.03 | 0.04 | 0.04 | 90 | 1007.8 |
| 20260507024509 | 50 | 188 | 0.0 | 0.0 | 0.03 | 0.04 | 0.04 | 90 | 1007.9 |